Time;durP1;ratioP1;P1;durP2;ratioP2;P2;SDS_P1;SDS_P2;PMS_P1;PMS_P2;Temp;Humidity;BMP_temperature;BMP_pressure;BME280_temperature;BME280_humidity;BME280_pressure;Samples;Min_cycle;Max_cycle;Signal;HPM_P1;HPM_P2
2023/07/24 00:01:22;;;;;;;9.85;2.38;;;;;;;25.83;100.00;100238.97;5051346;28;20227;-71
2023/07/24 00:03:49;;;;;;;10.05;2.38;;;;;;;25.77;100.00;100239.25;5052710;28;20276;-72
2023/07/24 00:06:16;;;;;;;10.18;2.40;;;;;;;25.86;100.00;100233.53;5016370;28;20207;-72
2023/07/24 00:08:43;;;;;;;8.63;2.08;;;;;;;25.83;100.00;100233.63;5025756;28;20693;-72
2023/07/24 00:11:09;;;;;;;11.27;2.50;;;;;;;25.81;100.00;100234.66;5032378;28;20199;-72
2023/07/24 00:13:36;;;;;;;9.15;2.17;;;;;;;25.88;100.00;100234.31;5051654;28;20659;-72
2023/07/24 00:16:07;;;;;;;6.25;1.90;;;;;;;25.92;100.00;100224.41;5052558;28;20230;-72
2023/07/24 00:18:35;;;;;;;8.80;2.30;;;;;;;25.79;100.00;100229.41;5044729;28;20199;-71
2023/07/24 00:21:02;;;;;;;8.77;2.47;;;;;;;25.64;100.00;100207.06;5051837;28;20204;-72
2023/07/24 00:23:29;;;;;;;9.82;2.38;;;;;;;25.43;100.00;100209.78;5051532;28;20203;-72
2023/07/24 00:25:56;;;;;;;9.68;2.35;;;;;;;25.43;100.00;100217.72;5052354;28;20195;-72
2023/07/24 00:28:22;;;;;;;8.68;2.05;;;;;;;25.43;100.00;100215.09;5050169;28;20206;-72
2023/07/24 00:30:49;;;;;;;9.00;2.05;;;;;;;25.41;100.00;100216.91;5052430;28;20249;-70
2023/07/24 00:33:16;;;;;;;7.65;2.08;;;;;;;25.28;100.00;100210.44;5050769;28;20199;-71
2023/07/24 00:35:44;;;;;;;7.55;2.10;;;;;;;25.27;100.00;100203.38;5051638;28;20289;-71
2023/07/24 00:38:11;;;;;;;10.20;2.45;;;;;;;25.23;100.00;100210.63;5046914;28;20265;-72
2023/07/24 00:40:37;;;;;;;7.03;1.92;;;;;;;25.18;100.00;100204.66;5051797;28;20602;-71
2023/07/24 00:43:04;;;;;;;8.45;2.40;;;;;;;25.17;100.00;100206.44;5051168;28;20191;-71
2023/07/24 00:45:31;;;;;;;8.35;2.13;;;;;;;25.22;100.00;100208.03;5044754;28;20206;-71
2023/07/24 00:48:00;;;;;;;8.32;2.30;;;;;;;25.11;100.00;100185.47;5015625;28;20199;-71
2023/07/24 00:50:28;;;;;;;7.45;2.05;;;;;;;25.19;100.00;100206.38;5051203;28;20207;-72
2023/07/24 00:52:57;;;;;;;9.20;2.28;;;;;;;25.13;100.00;100199.53;5050580;28;20584;-71
2023/07/24 00:55:24;;;;;;;8.02;2.20;;;;;;;24.96;100.00;100204.72;5051867;28;20204;-71
2023/07/24 00:57:51;;;;;;;10.10;2.50;;;;;;;24.91;100.00;100203.16;5050823;28;20242;-73
2023/07/24 01:00:18;;;;;;;9.75;2.30;;;;;;;24.83;100.00;100198.16;5051074;28;20203;-71
2023/07/24 01:02:45;;;;;;;7.13;2.25;;;;;;;24.85;100.00;100204.28;5050411;28;20207;-71
2023/07/24 01:05:14;;;;;;;5.72;1.77;;;;;;;24.85;100.00;100198.97;5009153;28;20195;-71
2023/07/24 01:07:41;;;;;;;5.05;1.70;;;;;;;24.54;100.00;100187.88;5052018;28;20223;-72
2023/07/24 01:10:10;;;;;;;6.82;1.75;;;;;;;24.73;100.00;100194.13;5047845;28;20210;-72
2023/07/24 01:12:42;;;;;;;4.22;1.40;;;;;;;24.82;100.00;100193.78;5051727;28;20226;-72
2023/07/24 01:15:15;;;;;;;3.22;1.20;;;;;;;24.67;100.00;100170.53;5049814;28;20200;-71
2023/07/24 01:17:49;;;;;;;4.03;1.52;;;;;;;24.84;100.00;100191.94;5051418;28;20679;-72
2023/07/24 01:20:18;;;;;;;3.20;1.75;;;;;;;24.71;100.00;100192.47;5051109;28;20207;-73
2023/07/24 01:22:58;;;;;;;3.45;1.40;;;;;;;24.74;100.00;100189.69;5050757;28;20214;-73
2023/07/24 01:25:35;;;;;;;4.80;1.90;;;;;;;24.69;100.00;100192.53;5050027;28;20207;-71
2023/07/24 01:28:07;;;;;;;5.90;1.63;;;;;;;24.65;100.00;100190.94;5051351;28;20204;-74
2023/07/24 01:30:34;;;;;;;4.78;1.50;;;;;;;24.50;100.00;100187.13;5048196;28;20213;-72
2023/07/24 01:33:01;;;;;;;4.82;1.60;;;;;;;24.51;100.00;100193.28;5051370;28;20274;-72
2023/07/24 01:35:29;;;;;;;2.72;1.35;;;;;;;24.58;100.00;100194.75;5050047;28;20199;-72
2023/07/24 01:37:57;;;;;;;4.60;1.52;;;;;;;24.60;100.00;100191.13;5051406;28;20222;-72
2023/07/24 01:40:24;;;;;;;4.15;1.50;;;;;;;24.51;100.00;100180.03;5050027;28;20257;-72
2023/07/24 01:42:52;;;;;;;3.50;1.23;;;;;;;24.45;100.00;100167.88;5050956;28;20199;-71
2023/07/24 01:45:20;;;;;;;3.80;1.30;;;;;;;24.55;100.00;100185.16;5050166;28;20209;-74
2023/07/24 01:47:47;;;;;;;3.08;1.20;;;;;;;24.28;100.00;100165.06;5031951;28;20227;-71
2023/07/24 01:50:14;;;;;;;12.35;2.35;;;;;;;24.37;100.00;100192.97;5030943;28;20697;-72
2023/07/24 01:52:40;;;;;;;4.90;1.48;;;;;;;24.31;100.00;100190.56;5051008;28;20200;-74
2023/07/24 01:55:09;;;;;;;5.05;1.58;;;;;;;24.23;100.00;100172.31;5050569;28;20260;-72
2023/07/24 01:57:35;;;;;;;7.60;1.92;;;;;;;24.37;100.00;100204.44;5050465;28;20226;-74
2023/07/24 02:00:02;;;;;;;3.33;1.27;;;;;;;24.22;100.00;100181.22;5049964;28;20219;-72
2023/07/24 02:02:30;;;;;;;4.55;1.63;;;;;;;24.46;100.00;100192.63;5050898;28;20191;-71
2023/07/24 02:04:57;;;;;;;3.58;1.25;;;;;;;24.45;100.00;100205.00;5051082;28;20208;-72
2023/07/24 02:07:24;;;;;;;4.78;1.63;;;;;;;24.43;100.00;100206.88;5050066;28;20187;-73
2023/07/24 02:09:51;;;;;;;4.68;1.42;;;;;;;24.44;100.00;100205.06;5051356;28;20200;-72
2023/07/24 02:12:17;;;;;;;6.47;1.70;;;;;;;24.19;100.00;100179.53;5049735;28;20195;-72
2023/07/24 02:14:44;;;;;;;3.25;1.30;;;;;;;24.22;100.00;100191.81;5050467;28;20203;-72
2023/07/24 02:17:11;;;;;;;4.57;1.63;;;;;;;24.46;100.00;100205.88;5048557;28;20245;-72
2023/07/24 02:19:39;;;;;;;3.88;1.48;;;;;;;24.59;100.00;100199.16;5050257;28;20578;-73
2023/07/24 02:22:06;;;;;;;4.22;1.58;;;;;;;24.53;100.00;100207.34;5049778;28;20210;-72
2023/07/24 02:24:32;;;;;;;4.45;1.60;;;;;;;24.41;100.00;100207.81;5050060;28;20584;-72
2023/07/24 02:26:59;;;;;;;4.53;1.45;;;;;;;24.41;100.00;100199.88;5050557;28;20698;-73
2023/07/24 02:29:26;;;;;;;3.35;1.30;;;;;;;24.28;100.00;100199.50;5049399;28;20639;-72
2023/07/24 02:31:54;;;;;;;3.45;1.20;;;;;;;24.07;100.00;100153.50;5049930;28;20211;-73
2023/07/24 02:34:24;;;;;;;5.20;1.60;;;;;;;24.32;100.00;100203.78;5049103;28;20745;-72
2023/07/24 02:36:53;;;;;;;3.63;1.30;;;;;;;24.47;100.00;100210.25;5048599;28;20223;-72
2023/07/24 02:39:19;;;;;;;5.30;1.50;;;;;;;24.43;100.00;100206.00;5048852;28;20214;-72
2023/07/24 02:41:46;;;;;;;3.90;1.48;;;;;;;24.40;100.00;100196.34;5044918;28;20241;-72
2023/07/24 02:44:13;;;;;;;4.35;1.42;;;;;;;24.31;100.00;100179.97;5049227;28;20298;-72
2023/07/24 02:46:40;;;;;;;1.45;1.00;;;;;;;24.25;100.00;100170.47;5050495;28;20214;-73
2023/07/24 02:49:06;;;;;;;4.65;1.63;;;;;;;24.39;100.00;100196.44;5046639;28;20203;-71
2023/07/24 02:51:33;;;;;;;3.60;1.40;;;;;;;24.15;100.00;100169.13;5050367;28;20712;-71
2023/07/24 02:54:01;;;;;;;2.47;1.25;;;;;;;24.43;100.00;100198.03;5049173;28;20709;-72
2023/07/24 02:56:28;;;;;;;3.47;1.35;;;;;;;24.30;100.00;100178.22;5049860;28;20219;-71
2023/07/24 02:58:55;;;;;;;3.60;1.45;;;;;;;24.60;100.00;100203.53;5047964;28;20230;-71
2023/07/24 03:01:22;;;;;;;4.28;1.45;;;;;;;24.64;100.00;100199.84;5049710;28;20293;-71
2023/07/24 03:03:49;;;;;;;4.82;2.95;;;;;;;24.57;100.00;100188.63;5049380;28;20208;-71
2023/07/24 03:06:16;;;;;;;4.22;1.40;;;;;;;24.62;100.00;100180.44;5049665;28;20218;-70
2023/07/24 03:08:42;;;;;;;2.78;1.15;;;;;;;24.71;100.00;100196.00;5026779;28;20200;-70
2023/07/24 03:11:10;;;;;;;4.72;1.48;;;;;;;24.94;100.00;100203.88;5047439;28;20627;-71
2023/07/24 03:13:40;;;;;;;4.57;1.42;;;;;;;24.84;100.00;100186.63;5049826;28;20266;-69
2023/07/24 03:16:07;;;;;;;6.03;1.67;;;;;;;24.95;100.00;100205.63;5048596;28;20199;-69
2023/07/24 03:18:34;;;;;;;4.25;1.50;;;;;;;24.97;100.00;100203.75;5049072;28;20207;-69
2023/07/24 03:21:01;;;;;;;3.50;1.27;;;;;;;25.06;100.00;100213.13;5048048;28;20207;-71
2023/07/24 03:23:28;;;;;;;5.32;1.70;;;;;;;25.01;100.00;100202.69;5048148;28;20260;-72
2023/07/24 03:25:54;;;;;;;3.88;1.90;;;;;;;25.14;100.00;100222.50;5030706;28;20207;-72
2023/07/24 03:28:22;;;;;;;5.95;1.70;;;;;;;25.18;100.00;100212.63;5044032;28;20207;-73
2023/07/24 03:30:49;;;;;;;3.58;1.50;;;;;;;24.99;100.00;100215.19;5048774;28;20200;-72
2023/07/24 03:33:17;;;;;;;4.28;1.50;;;;;;;25.14;100.00;100209.25;5049577;28;20647;-71
2023/07/24 03:35:44;;;;;;;4.60;1.52;;;;;;;25.21;100.00;100203.66;5048940;28;20204;-71
2023/07/24 03:38:10;;;;;;;3.72;1.48;;;;;;;25.45;100.00;100215.88;5048721;28;20227;-74
2023/07/24 03:40:37;;;;;;;6.13;1.75;;;;;;;25.71;100.00;100223.59;5048759;28;20226;-73
2023/07/24 03:43:04;;;;;;;4.00;1.40;;;;;;;25.73;100.00;100211.09;5049528;28;20659;-73
2023/07/24 03:45:32;;;;;;;4.28;1.52;;;;;;;25.98;100.00;100222.31;5049437;28;20195;-72
2023/07/24 03:47:59;;;;;;;2.63;1.27;;;;;;;26.07;100.00;100213.94;5047723;28;20203;-73
2023/07/24 03:50:26;;;;;;;6.10;1.63;;;;;;;26.40;100.00;100234.56;5048871;28;20249;-72
2023/07/24 03:52:52;;;;;;;3.80;1.63;;;;;;;26.70;100.00;100234.91;5049931;28;20214;-72
2023/07/24 03:55:19;;;;;;;5.53;1.77;;;;;;;27.11;100.00;100239.09;5048424;28;20208;-73
2023/07/24 03:57:46;;;;;;;5.38;1.77;;;;;;;27.22;100.00;100241.22;5048951;28;20238;-72
2023/07/24 04:00:14;;;;;;;2.30;1.23;;;;;;;27.51;100.00;100229.94;5047446;28;20218;-73
2023/07/24 04:02:43;;;;;;;4.88;1.52;;;;;;;27.91;100.00;100226.00;5019710;28;20208;-72
2023/07/24 04:05:10;;;;;;;2.35;1.02;;;;;;;27.95;100.00;100249.75;5012070;28;20204;-72
2023/07/24 04:07:37;;;;;;;5.20;1.65;;;;;;;27.98;100.00;100254.94;5051077;28;20210;-71
2023/07/24 04:10:05;;;;;;;3.67;1.40;;;;;;;28.18;100.00;100250.38;5052645;28;20238;-71
2023/07/24 04:12:32;;;;;;;4.50;1.42;;;;;;;28.60;99.80;100258.66;5045732;28;20207;-71
2023/07/24 04:14:59;;;;;;;2.53;1.08;;;;;;;28.81;95.98;100253.94;5025052;28;20199;-72
2023/07/24 04:17:25;;;;;;;7.45;2.83;;;;;;;29.07;95.07;100244.41;5051919;28;20231;-71
2023/07/24 04:19:53;;;;;;;3.13;1.25;;;;;;;29.31;93.07;100241.19;5051116;28;20203;-71
2023/07/24 04:22:20;;;;;;;3.38;1.33;;;;;;;29.35;91.01;100233.84;5052048;28;20215;-72
2023/07/24 04:24:47;;;;;;;5.53;1.63;;;;;;;29.59;90.20;100240.38;5051028;28;20195;-72
2023/07/24 04:27:14;;;;;;;3.88;1.30;;;;;;;29.80;89.76;100232.84;5052503;28;20195;-72
2023/07/24 04:29:41;;;;;;;3.80;1.73;;;;;;;29.88;87.38;100239.50;5051887;28;20574;-72
2023/07/24 04:32:08;;;;;;;3.90;1.48;;;;;;;30.27;85.34;100232.56;5052717;28;20207;-73
2023/07/24 04:34:35;;;;;;;5.22;1.50;;;;;;;30.53;84.79;100238.97;5051639;28;20214;-72
2023/07/24 04:37:03;;;;;;;4.30;1.55;;;;;;;30.94;81.33;100239.78;5052372;28;20574;-72
2023/07/24 04:39:30;;;;;;;5.63;1.80;;;;;;;31.39;80.02;100231.34;5016557;28;20222;-71
2023/07/24 04:41:57;;;;;;;2.58;1.20;;;;;;;31.55;77.38;100223.13;5052555;28;20207;-71
2023/07/24 04:44:23;;;;;;;5.32;1.60;;;;;;;31.92;76.08;100229.47;5051105;28;20215;-71
2023/07/24 04:46:50;;;;;;;6.63;1.92;;;;;;;32.18;74.11;100222.25;5052419;28;20210;-70
2023/07/24 04:49:17;;;;;;;5.85;1.85;;;;;;;32.44;72.91;100232.81;5050706;28;20210;-71
2023/07/24 04:51:44;;;;;;;5.18;1.70;;;;;;;32.38;72.81;100211.81;5048882;28;20207;-71
2023/07/24 04:54:12;;;;;;;5.13;1.65;;;;;;;32.36;72.93;100226.28;5031132;28;20196;-72
2023/07/24 04:56:39;;;;;;;4.47;1.88;;;;;;;31.57;77.64;100223.88;5050320;28;20206;-72
2023/07/24 04:59:05;;;;;;;5.68;1.70;;;;;;;31.47;79.68;100228.13;5051157;28;20293;-72
2023/07/24 05:01:32;;;;;;;6.72;1.88;;;;;;;31.71;79.64;100229.16;5048833;28;20211;-72
2023/07/24 05:03:59;;;;;;;6.70;1.90;;;;;;;32.31;76.72;100231.16;5051788;28;20203;-72
2023/07/24 05:06:25;;;;;;;6.65;1.83;;;;;;;32.75;73.25;100231.44;5051601;28;20198;-71
2023/07/24 05:08:53;;;;;;;6.22;1.60;;;;;;;32.99;70.34;100219.84;5051207;28;20210;-72
2023/07/24 05:11:21;;;;;;;4.03;1.50;;;;;;;33.59;68.62;100236.69;5050567;28;20215;-71
2023/07/24 05:13:48;;;;;;;5.93;1.80;;;;;;;34.02;66.74;100241.41;5051989;28;20202;-71
2023/07/24 05:16:15;;;;;;;4.97;1.50;;;;;;;34.38;64.98;100251.09;5050140;28;20210;-72
2023/07/24 05:18:42;;;;;;;6.85;1.98;;;;;;;34.63;61.06;100249.00;5051699;28;20670;-71
2023/07/24 05:21:08;;;;;;;4.35;1.58;;;;;;;34.89;59.57;100259.47;5050266;28;20705;-76
2023/07/24 05:23:35;;;;;;;6.30;1.80;;;;;;;34.53;60.72;100264.19;5051739;28;20203;-70
2023/07/24 05:26:03;;;;;;;5.45;1.83;;;;;;;33.93;63.19;100242.16;5047722;28;20210;-69
2023/07/24 05:28:33;;;;;;;5.88;1.73;;;;;;;33.76;66.27;100238.06;5043935;28;20203;-69
2023/07/24 05:31:01;;;;;;;5.50;1.65;;;;;;;33.52;67.41;100267.72;5014990;28;20266;-71
2023/07/24 05:33:28;;;;;;;6.85;1.83;;;;;;;33.37;68.38;100283.19;5049274;28;20229;-70
2023/07/24 05:35:59;;;;;;;5.20;1.67;;;;;;;32.54;72.12;100280.47;5050705;28;20203;-69
2023/07/24 05:38:26;;;;;;;4.78;1.55;;;;;;;32.95;72.12;100274.78;5050732;28;20321;-70
2023/07/24 05:40:56;;;;;;;5.15;1.63;;;;;;;32.73;74.25;100275.53;5049318;28;20708;-69
2023/07/24 05:43:22;;;;;;;7.25;1.92;;;;;;;32.31;75.49;100268.72;5051472;28;20199;-71
2023/07/24 05:45:51;;;;;;;5.45;1.60;;;;;;;32.88;73.95;100275.25;5050376;28;20207;-72
2023/07/24 05:48:17;;;;;;;7.10;2.25;;;;;;;32.85;72.53;100275.50;5050128;28;20207;-71
2023/07/24 05:50:44;;;;;;;7.43;1.90;;;;;;;32.49;74.31;100266.53;5048263;28;20202;-71
2023/07/24 05:53:11;;;;;;;6.43;1.92;;;;;;;32.46;76.91;100256.03;5050572;28;20191;-69
2023/07/24 05:55:38;;;;;;;7.07;2.03;;;;;;;32.39;76.20;100266.38;5049963;28;20202;-69
2023/07/24 05:58:04;;;;;;;7.80;2.03;;;;;;;32.02;77.23;100229.66;5050001;28;20292;-69
2023/07/24 06:00:31;;;;;;;4.15;1.40;;;;;;;32.31;75.60;100237.38;5051263;28;20198;-69
2023/07/24 06:02:59;;;;;;;6.78;2.00;;;;;;;32.26;76.34;100195.72;5051128;28;20256;-71
2023/07/24 06:05:26;;;;;;;7.78;2.20;;;;;;;32.37;76.97;100228.00;5049308;28;20206;-68
2023/07/24 06:07:53;;;;;;;13.75;2.92;;;;;;;32.41;76.82;100251.00;5037341;28;20203;-71
2023/07/24 06:10:20;;;;;;;8.35;2.25;;;;;;;32.37;76.77;100252.19;5011391;28;20200;-70
2023/07/24 06:12:47;;;;;;;7.95;2.33;;;;;;;32.36;79.33;100245.09;5025533;28;20233;-69
2023/07/24 06:15:14;;;;;;;6.93;2.03;;;;;;;32.38;80.20;100245.84;5044213;28;20239;-69
2023/07/24 06:17:41;;;;;;;6.93;1.75;;;;;;;32.42;78.74;100239.28;5030343;28;20231;-70
2023/07/24 06:20:10;;;;;;;8.77;2.22;;;;;;;32.49;77.62;100242.38;5031657;28;20241;-69
2023/07/24 06:22:36;;;;;;;8.80;2.35;;;;;;;32.30;76.61;100240.16;5047736;28;20203;-69
2023/07/24 06:25:04;;;;;;;8.02;2.00;;;;;;;32.21;78.55;100240.84;5044679;28;20195;-69
2023/07/24 06:27:30;;;;;;;9.68;2.25;;;;;;;32.06;79.56;100241.94;5038517;28;20214;-69
2023/07/24 06:29:57;;;;;;;8.07;2.00;;;;;;;31.95;79.39;100226.56;5042554;28;20206;-71
2023/07/24 06:32:24;;;;;;;6.95;1.95;;;;;;;31.80;80.07;100244.59;5041034;28;20214;-69
2023/07/24 06:34:51;;;;;;;7.18;1.80;;;;;;;31.41;81.23;100228.56;5045900;28;20640;-75
2023/07/24 06:37:19;;;;;;;5.72;1.58;;;;;;;31.14;84.59;100225.09;5045859;28;20202;-69
2023/07/24 06:39:45;;;;;;;7.25;1.88;;;;;;;30.96;86.48;100244.06;5044039;28;20207;-69
2023/07/24 06:42:12;;;;;;;5.43;1.60;;;;;;;30.44;92.72;100245.75;5044981;28;20203;-69
2023/07/24 06:44:39;;;;;;;9.55;2.22;;;;;;;30.34;92.49;100244.59;5045560;28;20199;-70
2023/07/24 06:47:06;;;;;;;7.50;1.88;;;;;;;30.50;93.55;100230.16;5024226;28;20268;-69
2023/07/24 06:49:32;;;;;;;4.78;1.55;;;;;;;30.17;93.94;100242.16;5008416;28;20204;-70
2023/07/24 06:51:59;;;;;;;13.75;2.92;;;;;;;29.99;95.26;100228.13;5048622;28;20690;-70
2023/07/24 06:54:27;;;;;;;7.20;2.00;;;;;;;30.36;95.10;100232.84;5047409;28;20254;-70
2023/07/24 06:56:54;;;;;;;7.47;1.90;;;;;;;30.33;95.82;100242.88;5047281;28;20203;-69
2023/07/24 06:59:21;;;;;;;8.35;2.00;;;;;;;30.55;95.27;100237.91;5045023;28;20262;-70
2023/07/24 07:01:48;;;;;;;6.90;1.90;;;;;;;30.61;92.33;100240.19;5044453;28;20203;-70
2023/07/24 07:04:14;;;;;;;8.00;2.00;;;;;;;30.70;92.62;100236.91;5047644;28;20207;-69
2023/07/24 07:06:41;;;;;;;9.88;2.30;;;;;;;30.69;91.46;100229.84;5036325;28;20227;-69
2023/07/24 07:09:08;;;;;;;10.93;2.17;;;;;;;30.86;89.50;100226.88;5041101;28;20284;-69
2023/07/24 07:11:36;;;;;;;9.93;2.30;;;;;;;30.71;90.75;100205.66;5044668;28;20211;-69
2023/07/24 07:14:03;;;;;;;15.38;3.03;;;;;;;30.51;93.04;100217.66;5043685;28;20203;-69
2023/07/24 07:16:29;;;;;;;7.03;1.83;;;;;;;30.72;93.77;100218.91;5037238;28;20655;-69
2023/07/24 07:18:56;;;;;;;7.82;1.88;;;;;;;30.66;94.22;100207.75;5038973;28;20337;-68
2023/07/24 07:21:23;;;;;;;8.88;2.35;;;;;;;30.67;92.25;100212.16;5041787;28;20681;-69
2023/07/24 07:23:50;;;;;;;9.32;2.10;;;;;;;30.78;89.64;100207.81;5040678;28;20210;-68
2023/07/24 07:26:17;;;;;;;8.52;2.13;;;;;;;30.71;88.16;100221.72;5041060;28;20207;-73
2023/07/24 07:28:45;;;;;;;9.40;2.22;;;;;;;30.69;88.08;100212.91;5043697;28;20198;-77
2023/07/24 07:31:12;;;;;;;10.00;2.33;;;;;;;30.45;89.98;100210.03;5038942;28;20210;-67
2023/07/24 07:33:39;;;;;;;8.98;2.13;;;;;;;30.56;88.42;100206.66;5041775;28;20200;-68
2023/07/24 07:36:06;;;;;;;8.57;1.95;;;;;;;30.60;84.01;100214.38;5042401;28;20691;-68
2023/07/24 07:38:33;;;;;;;7.95;2.10;;;;;;;30.46;86.71;100195.69;5042483;28;20313;-68
2023/07/24 07:41:05;;;;;;;8.98;2.40;;;;;;;30.80;88.91;100205.88;5040212;28;20253;-68
2023/07/24 07:43:32;;;;;;;9.18;2.15;;;;;;;30.87;88.15;100207.19;5046023;28;20203;-68
2023/07/24 07:46:00;;;;;;;9.82;2.25;;;;;;;31.14;84.40;100203.66;5014049;28;20203;-68
2023/07/24 07:48:27;;;;;;;9.23;2.15;;;;;;;31.16;81.06;100199.91;5044634;28;20214;-68
2023/07/24 07:50:53;;;;;;;10.20;2.50;;;;;;;31.31;83.83;100196.19;5045177;28;20675;-67
2023/07/24 07:53:20;;;;;;;7.43;2.17;;;;;;;31.43;81.25;100195.31;5047844;28;20203;-68
2023/07/24 07:55:47;;;;;;;9.57;2.20;;;;;;;31.31;82.10;100198.88;5038766;28;20200;-67
2023/07/24 07:58:14;;;;;;;8.77;2.25;;;;;;;31.35;82.13;100180.75;5048245;28;20318;-67
2023/07/24 08:00:41;;;;;;;7.25;1.98;;;;;;;30.91;82.38;100163.19;5052138;28;20202;-68
2023/07/24 08:03:09;;;;;;;7.53;2.00;;;;;;;31.42;78.57;100187.41;5052736;28;20221;-68
2023/07/24 08:05:35;;;;;;;7.80;2.00;;;;;;;31.53;74.21;100187.53;5049343;28;20195;-68
2023/07/24 08:08:02;;;;;;;9.05;2.17;;;;;;;31.45;71.83;100179.16;5039953;28;20202;-68
2023/07/24 08:10:29;;;;;;;11.02;2.35;;;;;;;31.37;70.71;100181.50;5047841;28;20202;-68
2023/07/24 08:12:56;;;;;;;12.60;2.85;;;;;;;31.57;69.88;100190.88;5047882;28;20288;-67
2023/07/24 08:15:22;;;;;;;7.03;2.03;;;;;;;31.75;70.34;100182.38;5050135;28;20818;-67
2023/07/24 08:17:49;;;;;;;7.20;1.98;;;;;;;31.48;67.55;100165.53;5047112;28;20207;-68
2023/07/24 08:20:17;;;;;;;7.30;2.00;;;;;;;31.73;66.68;100181.63;5041254;28;20203;-68
2023/07/24 08:22:44;;;;;;;7.60;1.98;;;;;;;31.49;68.44;100167.25;5048339;28;20202;-68
2023/07/24 08:25:11;;;;;;;5.70;1.65;;;;;;;31.87;66.57;100172.59;5045477;28;20195;-67
2023/07/24 08:27:38;;;;;;;6.72;1.80;;;;;;;32.05;65.10;100181.16;5014474;28;20221;-67
2023/07/24 08:30:06;;;;;;;9.95;2.53;;;;;;;32.03;62.07;100172.38;5010464;28;20206;-68
2023/07/24 08:32:32;;;;;;;6.30;1.88;;;;;;;31.91;60.80;100168.72;5047812;28;20712;-69
2023/07/24 08:34:59;;;;;;;6.43;1.88;;;;;;;32.04;62.05;100164.19;5041810;28;20666;-69
2023/07/24 08:37:27;;;;;;;8.55;2.28;;;;;;;31.94;61.72;100164.00;5050502;28;20199;-68
2023/07/24 08:39:54;;;;;;;10.65;2.60;;;;;;;31.58;63.76;100139.81;5005134;28;20223;-68
2023/07/24 08:42:21;;;;;;;10.35;2.38;;;;;;;31.82;64.20;100169.41;5042762;28;20207;-71
2023/07/24 08:44:48;;;;;;;9.50;2.33;;;;;;;31.65;64.44;100154.50;5050530;28;20203;-71
2023/07/24 08:47:16;;;;;;;13.00;2.75;;;;;;;31.81;63.36;100139.03;5039173;28;20226;-71
2023/07/24 08:49:44;;;;;;;10.43;2.33;;;;;;;31.94;62.31;100150.59;5043626;28;20583;-69
2023/07/24 08:52:11;;;;;;;9.88;2.38;;;;;;;32.11;63.14;100151.22;5007635;28;20203;-68
2023/07/24 08:54:40;;;;;;;7.95;2.13;;;;;;;32.40;62.28;100149.94;5062710;28;20202;-69
2023/07/24 08:57:08;;;;;;;10.02;2.47;;;;;;;32.52;60.51;100165.13;5072191;28;20198;-68
2023/07/24 08:59:35;;;;;;;7.93;2.30;;;;;;;32.65;61.73;100159.72;5049024;28;20717;-68
2023/07/24 09:02:02;;;;;;;8.48;2.00;;;;;;;32.99;62.18;100149.97;5044507;28;20592;-76
2023/07/24 09:04:29;;;;;;;9.90;2.72;;;;;;;33.23;59.43;100157.03;5043674;28;20203;-70
2023/07/24 09:06:58;;;;;;;7.88;1.95;;;;;;;33.06;58.49;100151.22;5040858;28;20211;-70
2023/07/24 09:09:24;;;;;;;7.85;1.92;;;;;;;32.91;55.85;100154.13;5050044;28;20203;-70
2023/07/24 09:11:54;;;;;;;7.55;1.90;;;;;;;33.00;55.88;100149.84;5011864;28;20203;-67
2023/07/24 09:14:22;;;;;;;6.25;1.70;;;;;;;32.96;57.01;100147.53;5016080;28;20297;-68
2023/07/24 09:16:52;;;;;;;6.65;1.83;;;;;;;32.79;53.99;100149.66;5047799;28;20647;-68
2023/07/24 09:19:19;;;;;;;7.40;1.92;;;;;;;32.93;56.22;100144.09;5044878;28;20763;-68
2023/07/24 09:21:46;;;;;;;6.07;1.80;;;;;;;33.18;55.94;100147.59;5045876;28;20198;-68
2023/07/24 09:24:14;;;;;;;8.50;2.58;;;;;;;33.17;52.70;100145.91;5045078;28;20667;-69
2023/07/24 09:26:49;;;;;;;5.57;1.55;;;;;;;33.57;51.78;100141.78;5046372;28;20196;-69
2023/07/24 09:29:17;;;;;;;6.78;1.77;;;;;;;33.27;52.28;100110.13;5048860;28;20572;-68
2023/07/24 09:31:45;;;;;;;7.75;2.05;;;;;;;33.23;46.77;100135.53;5042679;28;20253;-68
2023/07/24 09:34:16;;;;;;;9.43;2.20;;;;;;;33.57;49.79;100139.09;5047547;28;20209;-69
2023/07/24 09:36:43;;;;;;;7.57;2.00;;;;;;;33.62;49.24;100128.88;5040383;28;20195;-69
2023/07/24 09:39:11;;;;;;;11.73;2.90;;;;;;;33.66;49.72;100134.88;5036402;28;20277;-69
2023/07/24 09:41:38;;;;;;;6.45;1.88;;;;;;;33.89;50.61;100128.47;5041583;28;20753;-70
2023/07/24 09:44:05;;;;;;;6.13;1.90;;;;;;;34.20;49.40;100121.50;5039733;28;20214;-69
2023/07/24 09:46:34;;;;;;;5.45;1.80;;;;;;;34.40;46.98;100122.53;5041028;28;20607;-68
2023/07/24 09:49:01;;;;;;;7.18;2.20;;;;;;;34.23;46.52;100114.03;5041153;28;20531;-69
2023/07/24 09:51:30;;;;;;;8.60;2.13;;;;;;;34.02;47.00;100118.44;5044409;28;20209;-69
2023/07/24 09:54:02;;;;;;;10.40;2.47;;;;;;;34.10;46.27;100107.91;5027604;28;20215;-74
2023/07/24 09:56:29;;;;;;;6.20;1.70;;;;;;;34.29;45.76;100104.56;5042146;28;20674;-73
2023/07/24 09:58:58;;;;;;;9.35;2.17;;;;;;;34.69;44.83;100099.44;5050334;28;20730;-75
2023/07/24 10:01:27;;;;;;;6.05;1.65;;;;;;;33.99;43.41;100093.63;5046633;28;20586;-75
2023/07/24 10:03:56;;;;;;;6.20;1.73;;;;;;;33.95;44.62;100098.41;5040242;28;20208;-73
2023/07/24 10:06:25;;;;;;;5.40;1.52;;;;;;;34.48;43.92;100085.06;5042309;28;20195;-71
2023/07/24 10:08:53;;;;;;;6.25;1.83;;;;;;;34.37;41.93;100083.25;5041169;28;20210;-73
2023/07/24 10:11:21;;;;;;;7.40;1.92;;;;;;;34.19;41.38;100080.25;5045492;28;20195;-75
2023/07/24 10:13:48;;;;;;;7.50;1.98;;;;;;;34.13;41.84;100069.16;5050451;28;20199;-72
2023/07/24 10:16:15;;;;;;;6.78;1.95;;;;;;;34.29;42.88;100067.75;5050599;28;20195;-73
2023/07/24 10:18:44;;;;;;;6.63;1.77;;;;;;;34.23;45.04;100062.00;5018571;28;20231;-75
2023/07/24 10:21:13;;;;;;;10.30;2.47;;;;;;;34.30;46.26;100063.22;5063304;28;20202;-73
2023/07/24 10:23:43;;;;;;;8.25;2.13;;;;;;;34.02;47.12;100063.75;5050734;28;20206;-74
2023/07/24 10:26:11;;;;;;;8.55;2.20;;;;;;;33.60;46.52;100063.56;5049615;28;20253;-72
2023/07/24 10:28:39;;;;;;;8.25;2.03;;;;;;;33.48;45.93;100061.84;5049934;28;20206;-71
2023/07/24 10:31:08;;;;;;;10.63;2.53;;;;;;;33.61;45.87;100038.34;5050376;28;20233;-72
2023/07/24 10:33:37;;;;;;;8.80;2.25;;;;;;;33.82;45.90;100063.56;5050242;28;20217;-70
2023/07/24 10:36:09;;;;;;;7.50;2.05;;;;;;;34.11;45.05;100054.91;5049053;28;20191;-70
2023/07/24 10:38:40;;;;;;;7.88;1.95;;;;;;;34.06;45.23;100059.84;5042309;28;20234;-72
2023/07/24 10:41:08;;;;;;;10.50;2.33;;;;;;;34.20;43.85;100051.50;5046591;28;20194;-71
2023/07/24 10:43:46;;;;;;;7.40;1.90;;;;;;;34.39;43.89;100051.66;5047626;28;20218;-71
2023/07/24 10:46:14;;;;;;;8.45;2.10;;;;;;;34.37;43.54;100048.25;5008801;28;20210;-71
2023/07/24 10:48:45;;;;;;;8.70;2.13;;;;;;;34.66;43.49;100048.50;5048084;28;20199;-72
2023/07/24 10:51:14;;;;;;;7.80;2.05;;;;;;;34.76;42.61;100033.25;5047719;28;20248;-71
2023/07/24 10:53:47;;;;;;;8.93;2.28;;;;;;;34.83;41.19;100050.59;5045402;28;20203;-71
2023/07/24 10:56:14;;;;;;;6.90;1.88;;;;;;;34.94;41.01;100041.59;5046264;28;20207;-70
2023/07/24 10:58:41;;;;;;;6.15;1.70;;;;;;;34.82;38.27;100035.41;5015300;28;20645;-74
2023/07/24 11:01:10;;;;;;;6.40;1.83;;;;;;;34.91;38.50;100033.78;5046511;28;20264;-72
2023/07/24 11:03:38;;;;;;;5.90;1.88;;;;;;;35.08;37.20;100038.53;5043175;28;20603;-71
2023/07/24 11:06:05;;;;;;;9.77;2.30;;;;;;;35.30;38.27;100036.56;5045262;28;20206;-72
2023/07/24 11:08:33;;;;;;;8.52;2.00;;;;;;;35.31;34.94;100023.94;5045886;28;20214;-72
2023/07/24 11:11:03;;;;;;;8.27;2.05;;;;;;;35.53;35.80;99990.50;5043607;28;20272;-73
2023/07/24 11:13:29;;;;;;;5.75;1.60;;;;;;;35.76;35.48;100011.75;5047954;28;20643;-74
2023/07/24 11:15:56;;;;;;;9.65;2.05;;;;;;;35.73;34.67;100022.81;5029189;28;20215;-71
2023/07/24 11:18:26;;;;;;;9.95;2.20;;;;;;;35.10;36.19;99990.75;5051143;28;20563;-74
2023/07/24 11:20:55;;;;;;;10.00;2.17;;;;;;;35.19;34.34;100015.09;5034193;28;20310;-74
2023/07/24 11:23:22;;;;;;;10.98;2.33;;;;;;;35.49;34.03;100011.53;5039458;28;20198;-75